AFL765 UUEE-MUHA
Flight info
| Callsign | AFL765 |
|---|---|
| Flight time | N/A |
| Altitude | 30000 |
| Route | TOKNU3H TOKNU L4 NUDKO T561 INBAP L263 BESNO/K0917F290 T693 DISUP/K0913F300 T693 BEMOT DCT LULOR T693 UMDEL P190 PELOR/K0909F310 P190 AKATI DCT ATKUP/K0909F300 DCT ABMOT/N0490F300 DCT GILAV DCT 7230N00000W/M085F320 72N005W 7130N01000W 7030N01500W 69N020W 67N025W 65N030W 6230N03500W 5830N04000W 5130N04500W 44N050W/M085F340 4030N05500W 37N060W 3330N06500W/M085F360 3030N07000W DCT ILIDO M328 CNNOR/N0494F360 M328 TANIA/N0490F370 UR628 UVA KAVUL5B |
| Aircraft | B77W/H-SDE1E2E3FGHIJ2J3J4J5M1RWXY/LB1D1 |
Departure
| Time | 2026-05-01 10:06 |
|---|---|
| Airport | Sheremetyevo International Airport (UUEE) |
Arrival
| Time | N/A |
|---|---|
| Airport | José Martí International Airport (MUHA) |
| Time | Latitude | Longitude | Altitude | Speed | Heading |
|---|---|---|---|---|---|
| 2026-05-01 09:30 | 55.97737 | 37.41302 | 644 ft | 0 kts | 301° |
| 2026-05-01 09:56 | 55.97734 | 37.41310 | 644 ft | 2 kts | 300° |
| 2026-05-01 09:57 | 55.97726 | 37.41336 | 650 ft | 2 kts | 301° |
| 2026-05-01 09:57 | 55.97717 | 37.41361 | 646 ft | 2 kts | 301° |
| 2026-05-01 09:57 | 55.97709 | 37.41386 | 648 ft | 2 kts | 301° |
| 2026-05-01 09:57 | 55.97701 | 37.41411 | 648 ft | 2 kts | 300° |
| 2026-05-01 09:58 | 55.97692 | 37.41436 | 648 ft | 2 kts | 300° |
| 2026-05-01 09:58 | 55.97684 | 37.41461 | 648 ft | 2 kts | 299° |
| 2026-05-01 09:58 | 55.97677 | 37.41487 | 648 ft | 2 kts | 293° |
| 2026-05-01 09:58 | 55.97675 | 37.41516 | 649 ft | 2 kts | 240° |
| 2026-05-01 09:59 | 55.97686 | 37.41537 | 647 ft | 2 kts | 215° |
| 2026-05-01 09:59 | 55.97700 | 37.41552 | 648 ft | 2 kts | 204° |
| 2026-05-01 09:59 | 55.97715 | 37.41561 | 646 ft | 2 kts | 185° |
| 2026-05-01 09:59 | 55.97720 | 37.41563 | 645 ft | 0 kts | 171° |
| 2026-05-01 10:02 | 55.97704 | 37.41569 | 648 ft | 10 kts | 167° |
| 2026-05-01 10:02 | 55.97627 | 37.41622 | 647 ft | 13 kts | 136° |
| 2026-05-01 10:02 | 55.97630 | 37.41823 | 644 ft | 22 kts | 76° |
| 2026-05-01 10:03 | 55.97670 | 37.42088 | 644 ft | 22 kts | 76° |
| 2026-05-01 10:03 | 55.97707 | 37.42350 | 646 ft | 22 kts | 74° |
| 2026-05-01 10:03 | 55.97749 | 37.42614 | 647 ft | 22 kts | 75° |
| 2026-05-01 10:03 | 55.97788 | 37.42875 | 649 ft | 22 kts | 75° |
| 2026-05-01 10:04 | 55.97829 | 37.43140 | 648 ft | 22 kts | 75° |
| 2026-05-01 10:04 | 55.97865 | 37.43405 | 646 ft | 22 kts | 76° |
| 2026-05-01 10:04 | 55.97907 | 37.43668 | 650 ft | 22 kts | 75° |
| 2026-05-01 10:04 | 55.97945 | 37.43931 | 648 ft | 22 kts | 81° |
| 2026-05-01 10:05 | 55.97834 | 37.44072 | 648 ft | 22 kts | 183° |
| 2026-05-01 10:05 | 55.97768 | 37.43923 | 649 ft | 15 kts | 253° |
| 2026-05-01 10:05 | 55.97686 | 37.43396 | 650 ft | 83 kts | 256° |
| 2026-05-01 10:05 | 55.97468 | 37.41918 | 645 ft | 161 kts | 255° |
| 2026-05-01 10:06 | 55.97144 | 37.39645 | 888 ft | 202 kts | 256° |
| 2026-05-01 10:06 | 55.96789 | 37.37233 | 1892 ft | 196 kts | 255° |
| 2026-05-01 10:06 | 55.96413 | 37.34882 | 2319 ft | 202 kts | 255° |
| 2026-05-01 10:06 | 55.96007 | 37.32354 | 2468 ft | 220 kts | 255° |
| 2026-05-01 10:07 | 55.95573 | 37.29631 | 2760 ft | 235 kts | 255° |
| 2026-05-01 10:07 | 55.95115 | 37.26750 | 3169 ft | 244 kts | 255° |
| 2026-05-01 10:07 | 55.94679 | 37.23782 | 3661 ft | 249 kts | 264° |
| 2026-05-01 10:07 | 55.94895 | 37.20722 | 4023 ft | 255 kts | 295° |
| 2026-05-01 10:08 | 55.97000 | 37.15536 | 5138 ft | 265 kts | 313° |
| 2026-05-01 10:08 | 55.98264 | 37.13127 | 5804 ft | 267 kts | 314° |
| 2026-05-01 10:08 | 55.99549 | 37.10705 | 6477 ft | 270 kts | 314° |
| 2026-05-01 10:09 | 56.00843 | 37.08251 | 7071 ft | 272 kts | 314° |
| 2026-05-01 10:09 | 56.02137 | 37.05778 | 7734 ft | 273 kts | 314° |
| 2026-05-01 10:09 | 56.03441 | 37.03267 | 8338 ft | 277 kts | 314° |
| 2026-05-01 10:09 | 56.04755 | 37.00722 | 8912 ft | 280 kts | 314° |
| 2026-05-01 10:10 | 56.06081 | 36.98142 | 9501 ft | 283 kts | 314° |
| 2026-05-01 10:10 | 56.07420 | 36.95526 | 10104 ft | 285 kts | 314° |
| 2026-05-01 10:10 | 56.10232 | 36.90016 | 10579 ft | 317 kts | 314° |
| 2026-05-01 10:11 | 56.11764 | 36.87005 | 10725 ft | 336 kts | 314° |
| 2026-05-01 10:11 | 56.13351 | 36.83875 | 10989 ft | 350 kts | 314° |
| 2026-05-01 10:11 | 56.15015 | 36.80588 | 11450 ft | 359 kts | 314° |
| 2026-05-01 10:11 | 56.16704 | 36.77245 | 12064 ft | 364 kts | 315° |
| 2026-05-01 10:12 | 56.18408 | 36.73865 | 12765 ft | 366 kts | 316° |
| 2026-05-01 10:12 | 56.19544 | 36.71618 | 13170 ft | 368 kts | 316° |
| 2026-05-01 10:12 | 56.23548 | 36.63640 | 15098 ft | 360 kts | 317° |
| 2026-05-01 10:13 | 56.25243 | 36.60262 | 15511 ft | 370 kts | 317° |
| 2026-05-01 10:13 | 56.26970 | 36.56821 | 15850 ft | 380 kts | 317° |
| 2026-05-01 10:13 | 56.28761 | 36.53243 | 16314 ft | 387 kts | 317° |
| 2026-05-01 10:14 | 56.32382 | 36.45984 | 17531 ft | 392 kts | 317° |
| 2026-05-01 10:14 | 56.34198 | 36.42286 | 18113 ft | 397 kts | 315° |
| 2026-05-01 10:14 | 56.35827 | 36.38176 | 18650 ft | 406 kts | 307° |
| 2026-05-01 10:14 | 56.37200 | 36.33656 | 19138 ft | 414 kts | 301° |
| 2026-05-01 10:15 | 56.38273 | 36.28930 | 19647 ft | 419 kts | 296° |
| 2026-05-01 10:15 | 56.39292 | 36.23984 | 20139 ft | 423 kts | 296° |
| 2026-05-01 10:15 | 56.40318 | 36.18976 | 20608 ft | 426 kts | 297° |
| 2026-05-01 10:15 | 56.41361 | 36.13949 | 21094 ft | 429 kts | 297° |
| 2026-05-01 10:16 | 56.42422 | 36.08890 | 21563 ft | 432 kts | 297° |
| 2026-05-01 10:16 | 56.43491 | 36.03805 | 22051 ft | 434 kts | 297° |
| 2026-05-01 10:16 | 56.46185 | 35.94122 | 22956 ft | 430 kts | 310° |
| 2026-05-01 10:17 | 56.47923 | 35.89746 | 23416 ft | 426 kts | 316° |
| 2026-05-01 10:17 | 56.51764 | 35.81509 | 24212 ft | 430 kts | 317° |
| 2026-05-01 10:17 | 56.53696 | 35.77354 | 24576 ft | 432 kts | 317° |
| 2026-05-01 10:18 | 56.57547 | 35.68966 | 25413 ft | 434 kts | 317° |
| 2026-05-01 10:18 | 56.59477 | 35.64737 | 25760 ft | 437 kts | 317° |
| 2026-05-01 10:19 | 56.63023 | 35.56943 | 26397 ft | 440 kts | 318° |
| 2026-05-01 10:19 | 56.64980 | 35.52645 | 26756 ft | 442 kts | 318° |
| 2026-05-01 10:19 | 56.66944 | 35.48332 | 27111 ft | 443 kts | 319° |
| 2026-05-01 10:20 | 56.70894 | 35.39637 | 27786 ft | 447 kts | 319° |
| 2026-05-01 10:20 | 56.72876 | 35.35258 | 28099 ft | 448 kts | 319° |
| 2026-05-01 10:20 | 56.74849 | 35.30884 | 28560 ft | 446 kts | 320° |
| 2026-05-01 10:20 | 56.76821 | 35.26511 | 28878 ft | 448 kts | 320° |
| 2026-05-01 10:21 | 56.78803 | 35.22113 | 29101 ft | 451 kts | 320° |
| 2026-05-01 10:21 | 56.82793 | 35.13225 | 29611 ft | 454 kts | 320° |
| 2026-05-01 10:21 | 56.84769 | 35.08808 | 29871 ft | 455 kts | 320° |
| 2026-05-01 10:22 | 56.88806 | 34.99854 | 30167 ft | 456 kts | 323° |
| 2026-05-01 10:22 | 56.93351 | 34.92095 | 30189 ft | 441 kts | 331° |
| 2026-05-01 10:23 | 56.95820 | 34.88815 | 30218 ft | 436 kts | 335° |
| 2026-05-01 10:23 | 57.03481 | 34.79746 | 30213 ft | 438 kts | 335° |
| 2026-05-01 10:24 | 57.13708 | 34.67497 | 30210 ft | 438 kts | 335° |
| 2026-05-01 10:25 | 57.23873 | 34.55183 | 30205 ft | 437 kts | 335° |
| 2026-05-01 10:26 | 57.28924 | 34.49036 | 30219 ft | 438 kts | 334° |
| 2026-05-01 10:27 | 57.39125 | 34.36559 | 30213 ft | 440 kts | 334° |
| 2026-05-01 10:28 | 57.46782 | 34.27134 | 30187 ft | 440 kts | 334° |
| 2026-05-01 10:28 | 57.54439 | 34.17661 | 30215 ft | 441 kts | 333° |
| 2026-05-01 10:29 | 57.62104 | 34.08131 | 30211 ft | 442 kts | 333° |
| 2026-05-01 10:30 | 57.72293 | 33.95384 | 30169 ft | 441 kts | 333° |
| 2026-05-01 10:31 | 57.82465 | 33.82573 | 30193 ft | 441 kts | 333° |
| 2026-05-01 10:32 | 57.89758 | 33.71883 | 30214 ft | 451 kts | 322° |
| 2026-05-01 10:33 | 57.98563 | 33.55067 | 30204 ft | 448 kts | 323° |
| 2026-05-01 10:34 | 58.05126 | 33.42585 | 30203 ft | 445 kts | 323° |
| 2026-05-01 10:34 | 58.09453 | 33.34325 | 30205 ft | 444 kts | 323° |
| 2026-05-01 10:35 | 58.15968 | 33.21832 | 30210 ft | 445 kts | 322° |
| 2026-05-01 10:35 | 58.20306 | 33.13502 | 30200 ft | 443 kts | 323° |
| 2026-05-01 10:36 | 58.26777 | 33.01041 | 30204 ft | 441 kts | 323° |
| 2026-05-01 10:37 | 58.31068 | 32.92739 | 30209 ft | 440 kts | 323° |
| 2026-05-01 10:37 | 58.37493 | 32.80246 | 30208 ft | 440 kts | 323° |
| 2026-05-01 10:38 | 58.41759 | 32.71910 | 30174 ft | 438 kts | 322° |
| 2026-05-01 10:38 | 58.46019 | 32.63559 | 30202 ft | 440 kts | 322° |
| 2026-05-01 10:39 | 58.50259 | 32.55215 | 30210 ft | 441 kts | 322° |
| 2026-05-01 10:39 | 58.54537 | 32.46763 | 30209 ft | 442 kts | 322° |
| 2026-05-01 10:40 | 58.58817 | 32.38276 | 30205 ft | 443 kts | 322° |
| 2026-05-01 10:40 | 58.63095 | 32.29759 | 30205 ft | 443 kts | 322° |
| 2026-05-01 10:41 | 58.67364 | 32.21227 | 30202 ft | 443 kts | 322° |
| 2026-05-01 10:42 | 58.73759 | 32.08389 | 30198 ft | 443 kts | 322° |
| 2026-05-01 10:42 | 58.78007 | 31.99820 | 30199 ft | 442 kts | 322° |
| 2026-05-01 10:43 | 58.82249 | 31.91231 | 30132 ft | 442 kts | 321° |
| 2026-05-01 10:43 | 58.86476 | 31.82641 | 30207 ft | 441 kts | 321° |
| 2026-05-01 10:44 | 58.90701 | 31.74024 | 30190 ft | 442 kts | 321° |
| 2026-05-01 10:44 | 58.95019 | 31.65608 | 30196 ft | 434 kts | 329° |
| 2026-05-01 10:44 | 58.97452 | 31.62330 | 30597 ft | 420 kts | 335° |
| 2026-05-01 10:45 | 58.99957 | 31.59578 | 31086 ft | 409 kts | 339° |
| 2026-05-01 10:45 | 59.02525 | 31.57368 | 31531 ft | 397 kts | 346° |
| 2026-05-01 10:45 | 59.05118 | 31.55749 | 32030 ft | 388 kts | 347° |
| 2026-05-01 10:45 | 59.07671 | 31.54188 | 32509 ft | 380 kts | 347° |
| 2026-05-01 10:46 | 59.10140 | 31.52676 | 32946 ft | 372 kts | 346° |
| 2026-05-01 10:46 | 59.12585 | 31.51166 | 33436 ft | 364 kts | 346° |
| 2026-05-01 10:46 | 59.14964 | 31.49687 | 33934 ft | 354 kts | 346° |
| 2026-05-01 10:46 | 59.17304 | 31.48226 | 34104 ft | 354 kts | 346° |
| 2026-05-01 10:47 | 59.19674 | 31.46748 | 33873 ft | 362 kts | 346° |
| 2026-05-01 10:47 | 59.24480 | 31.43729 | 34008 ft | 362 kts | 346° |
| 2026-05-01 10:48 | 59.29270 | 31.40700 | 34147 ft | 363 kts | 346° |
| 2026-05-01 10:48 | 59.33275 | 31.38162 | 34182 ft | 365 kts | 346° |
| 2026-05-01 10:49 | 59.38137 | 31.35070 | 34190 ft | 369 kts | 346° |
| 2026-05-01 10:49 | 59.43055 | 31.31934 | 34188 ft | 374 kts | 346° |
| 2026-05-01 10:50 | 59.48034 | 31.28749 | 34182 ft | 378 kts | 345° |
| 2026-05-01 10:50 | 59.53078 | 31.25509 | 34189 ft | 383 kts | 345° |
| 2026-05-01 10:51 | 59.58177 | 31.22226 | 34191 ft | 388 kts | 345° |
| 2026-05-01 10:51 | 59.63342 | 31.18891 | 34178 ft | 392 kts | 346° |
| 2026-05-01 10:51 | 59.65991 | 31.17776 | 34172 ft | 389 kts | 358° |
| 2026-05-01 10:52 | 59.68662 | 31.17766 | 34178 ft | 390 kts | 5° |
| 2026-05-01 10:52 | 59.73980 | 31.20030 | 34192 ft | 396 kts | 19° |
| 2026-05-01 10:53 | 59.79138 | 31.24112 | 34196 ft | 401 kts | 19° |
| 2026-05-01 10:53 | 59.84364 | 31.28174 | 34190 ft | 405 kts | 19° |
| 2026-05-01 10:54 | 59.89650 | 31.32230 | 34185 ft | 409 kts | 19° |
| 2026-05-01 10:54 | 59.94991 | 31.36310 | 34185 ft | 412 kts | 18° |
| 2026-05-01 10:55 | 60.00374 | 31.40399 | 34189 ft | 416 kts | 18° |
| 2026-05-01 10:55 | 60.05802 | 31.44513 | 34189 ft | 418 kts | 18° |
| 2026-05-01 10:56 | 60.11303 | 31.48391 | 34190 ft | 420 kts | 17° |
| 2026-05-01 10:56 | 60.16794 | 31.52506 | 34185 ft | 422 kts | 20° |
| 2026-05-01 10:57 | 60.22193 | 31.57120 | 34178 ft | 425 kts | 20° |
| 2026-05-01 10:57 | 60.27639 | 31.61844 | 34198 ft | 427 kts | 20° |
| 2026-05-01 10:58 | 60.33116 | 31.66581 | 34180 ft | 429 kts | 20° |
| 2026-05-01 10:58 | 60.38630 | 31.71348 | 34192 ft | 431 kts | 20° |
| 2026-05-01 10:59 | 60.44150 | 31.76134 | 34176 ft | 432 kts | 20° |
| 2026-05-01 10:59 | 60.49680 | 31.80946 | 34173 ft | 432 kts | 20° |
| 2026-05-01 11:00 | 60.55207 | 31.85776 | 34187 ft | 433 kts | 20° |
| 2026-05-01 11:00 | 60.60737 | 31.90625 | 34188 ft | 433 kts | 20° |
| 2026-05-01 11:01 | 60.66266 | 31.95463 | 34180 ft | 432 kts | 18° |
| 2026-05-01 11:01 | 60.71974 | 31.98718 | 34186 ft | 427 kts | 9° |
| 2026-05-01 11:02 | 60.77857 | 32.00213 | 34183 ft | 425 kts | 1° |
| 2026-05-01 11:02 | 60.83776 | 32.00602 | 34171 ft | 425 kts | 1° |
| 2026-05-01 11:03 | 60.89682 | 32.01009 | 34172 ft | 424 kts | 1° |
| 2026-05-01 11:03 | 60.95587 | 32.01476 | 34175 ft | 424 kts | 1° |
| 2026-05-01 11:04 | 61.01485 | 32.01718 | 34176 ft | 424 kts | 359° |
| 2026-05-01 11:04 | 61.07345 | 32.01562 | 34163 ft | 423 kts | 358° |
| 2026-05-01 11:05 | 61.13246 | 32.01441 | 34168 ft | 424 kts | 359° |
| 2026-05-01 11:05 | 61.19160 | 32.01377 | 34168 ft | 426 kts | 359° |
| 2026-05-01 11:06 | 61.25089 | 32.01319 | 34170 ft | 426 kts | 359° |
| 2026-05-01 11:06 | 61.31031 | 32.01255 | 34166 ft | 427 kts | 359° |
| 2026-05-01 11:07 | 61.39920 | 32.01150 | 34156 ft | 427 kts | 359° |
| 2026-05-01 11:07 | 61.45869 | 32.01080 | 34152 ft | 428 kts | 359° |
| 2026-05-01 11:08 | 61.51821 | 32.01010 | 34147 ft | 428 kts | 359° |
| 2026-05-01 11:09 | 61.60753 | 32.00906 | 34106 ft | 428 kts | 358° |
| 2026-05-01 11:09 | 61.66705 | 32.00835 | 34126 ft | 428 kts | 358° |
| 2026-05-01 11:10 | 61.75641 | 32.00726 | 34120 ft | 428 kts | 358° |
| 2026-05-01 11:10 | 61.81606 | 32.00655 | 34116 ft | 429 kts | 358° |
| 2026-05-01 11:11 | 61.87575 | 32.00579 | 34144 ft | 429 kts | 358° |
| 2026-05-01 11:11 | 61.93554 | 32.00440 | 34112 ft | 430 kts | 358° |
| 2026-05-01 11:12 | 61.99532 | 32.00284 | 34114 ft | 429 kts | 358° |
| 2026-05-01 11:12 | 62.05507 | 32.00135 | 34101 ft | 429 kts | 358° |
| 2026-05-01 11:13 | 62.11438 | 31.99990 | 34101 ft | 429 kts | 358° |
| 2026-05-01 11:13 | 62.17411 | 31.99846 | 34071 ft | 429 kts | 357° |
| 2026-05-01 11:14 | 62.23382 | 31.99699 | 34106 ft | 429 kts | 357° |
| 2026-05-01 11:14 | 62.29365 | 31.99548 | 34089 ft | 430 kts | 357° |
| 2026-05-01 11:15 | 62.35364 | 31.99370 | 34081 ft | 431 kts | 356° |
| 2026-05-01 11:15 | 62.41371 | 31.99186 | 34076 ft | 432 kts | 356° |
| 2026-05-01 11:16 | 62.47349 | 31.99006 | 34062 ft | 432 kts | 356° |
| 2026-05-01 11:16 | 62.53371 | 31.98825 | 34064 ft | 433 kts | 356° |
| 2026-05-01 11:17 | 62.59398 | 31.98644 | 34083 ft | 433 kts | 356° |
| 2026-05-01 11:17 | 62.65422 | 31.98461 | 34059 ft | 432 kts | 356° |
| 2026-05-01 11:18 | 62.71430 | 31.98279 | 34025 ft | 432 kts | 356° |
| 2026-05-01 11:18 | 62.77434 | 31.98049 | 34037 ft | 431 kts | 355° |
| 2026-05-01 11:19 | 62.83445 | 31.97726 | 34038 ft | 432 kts | 355° |
| 2026-05-01 11:19 | 62.89416 | 31.97451 | 34035 ft | 433 kts | 355° |
| 2026-05-01 11:20 | 62.95440 | 31.97186 | 34052 ft | 433 kts | 355° |
| 2026-05-01 11:20 | 63.01481 | 31.96914 | 34029 ft | 434 kts | 355° |
| 2026-05-01 11:21 | 63.07528 | 31.96640 | 34014 ft | 435 kts | 355° |
| 2026-05-01 11:21 | 63.13575 | 31.96364 | 34014 ft | 435 kts | 355° |
| 2026-05-01 11:22 | 63.19622 | 31.96086 | 34008 ft | 434 kts | 355° |
| 2026-05-01 11:22 | 63.21622 | 31.95994 | 34009 ft | 434 kts | 355° |
| 2026-05-01 11:23 | 63.31627 | 31.95531 | 34030 ft | 434 kts | 354° |
| 2026-05-01 11:23 | 63.37699 | 31.95604 | 34006 ft | 437 kts | 357° |
| 2026-05-01 11:24 | 63.43794 | 31.95916 | 33997 ft | 438 kts | 357° |
| 2026-05-01 11:25 | 63.61935 | 31.96854 | 33981 ft | 440 kts | 357° |
| 2026-05-01 11:26 | 63.71127 | 31.97323 | 33978 ft | 441 kts | 356° |
| 2026-05-01 11:27 | 63.76226 | 31.97584 | 33965 ft | 440 kts | 356° |
| 2026-05-01 11:27 | 63.83381 | 31.97954 | 33966 ft | 440 kts | 356° |
| 2026-05-01 11:28 | 63.89461 | 31.98269 | 33960 ft | 439 kts | 356° |
| 2026-05-01 11:28 | 63.95565 | 31.98587 | 33962 ft | 438 kts | 356° |
| 2026-05-01 11:29 | 64.04702 | 31.99065 | 33961 ft | 438 kts | 356° |
| 2026-05-01 11:30 | 64.13834 | 31.99545 | 33946 ft | 437 kts | 356° |
| 2026-05-01 11:30 | 64.19904 | 31.99868 | 33942 ft | 436 kts | 356° |
| 2026-05-01 11:31 | 64.25970 | 32.00191 | 33942 ft | 435 kts | 356° |
| 2026-05-01 11:31 | 64.31990 | 32.00511 | 33928 ft | 435 kts | 356° |
| 2026-05-01 11:32 | 64.38048 | 32.00835 | 33931 ft | 435 kts | 356° |
| 2026-05-01 11:32 | 64.44108 | 32.01162 | 33926 ft | 436 kts | 356° |
| 2026-05-01 11:33 | 64.50188 | 32.01496 | 33917 ft | 436 kts | 356° |
| 2026-05-01 11:33 | 64.56234 | 32.01819 | 33926 ft | 438 kts | 356° |
| 2026-05-01 11:34 | 64.62347 | 32.02149 | 33928 ft | 441 kts | 356° |
| 2026-05-01 11:34 | 64.68496 | 32.02488 | 33925 ft | 443 kts | 356° |
| 2026-05-01 11:35 | 64.74670 | 32.02830 | 33948 ft | 444 kts | 356° |
| 2026-05-01 11:35 | 64.80860 | 32.03173 | 33912 ft | 445 kts | 356° |
| 2026-05-01 11:36 | 64.87049 | 32.03518 | 33913 ft | 444 kts | 356° |
| 2026-05-01 11:36 | 64.93221 | 32.03863 | 33904 ft | 443 kts | 356° |
| 2026-05-01 11:37 | 64.99385 | 32.04208 | 33911 ft | 442 kts | 356° |
| 2026-05-01 11:37 | 65.05528 | 32.04551 | 33900 ft | 441 kts | 356° |
| 2026-05-01 11:38 | 65.11615 | 32.04896 | 33933 ft | 440 kts | 355° |
| 2026-05-01 11:38 | 65.17758 | 32.05239 | 33909 ft | 441 kts | 355° |
| 2026-05-01 11:39 | 65.23903 | 32.05586 | 33901 ft | 442 kts | 355° |
| 2026-05-01 11:39 | 65.30054 | 32.05937 | 33901 ft | 443 kts | 355° |
| 2026-05-01 11:40 | 65.36218 | 32.06290 | 33895 ft | 443 kts | 355° |
| 2026-05-01 11:40 | 65.42393 | 32.06645 | 33893 ft | 444 kts | 355° |
| 2026-05-01 11:41 | 65.48535 | 32.07001 | 33925 ft | 445 kts | 355° |
| 2026-05-01 11:41 | 65.52993 | 32.07259 | 33898 ft | 445 kts | 355° |
| 2026-05-01 11:42 | 65.57995 | 32.07538 | 33891 ft | 446 kts | 355° |
| 2026-05-01 11:42 | 65.64980 | 32.07856 | 33888 ft | 445 kts | 355° |
| 2026-05-01 11:43 | 65.71151 | 32.08135 | 33871 ft | 446 kts | 354° |
| 2026-05-01 11:43 | 65.77364 | 32.08415 | 33888 ft | 446 kts | 354° |
| 2026-05-01 11:44 | 65.86650 | 32.08844 | 33895 ft | 447 kts | 354° |
| 2026-05-01 11:44 | 65.92834 | 32.09135 | 33880 ft | 448 kts | 354° |
| 2026-05-01 11:45 | 65.99061 | 32.09429 | 33876 ft | 449 kts | 354° |
| 2026-05-01 11:45 | 66.05282 | 32.09725 | 33876 ft | 450 kts | 354° |
| 2026-05-01 11:46 | 66.11545 | 32.10024 | 33863 ft | 450 kts | 354° |
| 2026-05-01 11:46 | 66.17818 | 32.10325 | 33856 ft | 451 kts | 354° |
| 2026-05-01 11:47 | 66.24095 | 32.10628 | 33878 ft | 451 kts | 354° |
| 2026-05-01 11:47 | 66.30377 | 32.10931 | 33876 ft | 452 kts | 354° |
| 2026-05-01 11:48 | 66.36681 | 32.11237 | 33848 ft | 453 kts | 354° |
| 2026-05-01 11:48 | 66.42970 | 32.11148 | 33845 ft | 451 kts | 350° |
| 2026-05-01 11:49 | 66.48175 | 32.10435 | 33843 ft | 451 kts | 349° |
| 2026-05-01 11:49 | 66.55453 | 32.09313 | 33834 ft | 452 kts | 349° |
| 2026-05-01 11:50 | 66.61749 | 32.08388 | 33854 ft | 453 kts | 350° |
| 2026-05-01 11:50 | 66.66984 | 32.07644 | 33831 ft | 454 kts | 350° |
| 2026-05-01 11:51 | 66.73302 | 32.06758 | 33822 ft | 454 kts | 350° |
| 2026-05-01 11:51 | 66.79607 | 32.05871 | 33826 ft | 454 kts | 350° |
| 2026-05-01 11:52 | 66.85914 | 32.04978 | 33826 ft | 454 kts | 350° |
| 2026-05-01 11:52 | 66.92232 | 32.04078 | 33824 ft | 455 kts | 350° |
| 2026-05-01 11:53 | 66.98567 | 32.03165 | 33827 ft | 456 kts | 350° |
| 2026-05-01 11:53 | 67.04910 | 32.02247 | 33815 ft | 459 kts | 350° |
| 2026-05-01 11:54 | 67.11311 | 32.01320 | 33830 ft | 460 kts | 350° |
| 2026-05-01 11:54 | 67.17661 | 32.00395 | 33814 ft | 461 kts | 350° |
| 2026-05-01 11:55 | 67.24077 | 31.99456 | 33822 ft | 461 kts | 350° |
| 2026-05-01 11:55 | 67.30490 | 31.98513 | 33819 ft | 462 kts | 350° |
| 2026-05-01 11:56 | 67.36907 | 31.97563 | 33812 ft | 462 kts | 350° |
| 2026-05-01 11:56 | 67.43333 | 31.96607 | 33821 ft | 463 kts | 350° |
| 2026-05-01 11:57 | 67.49739 | 31.95645 | 33821 ft | 463 kts | 350° |
| 2026-05-01 11:57 | 67.56188 | 31.94675 | 33817 ft | 463 kts | 350° |
| 2026-05-01 11:58 | 67.62625 | 31.93702 | 33810 ft | 463 kts | 350° |
| 2026-05-01 11:59 | 67.72279 | 31.92231 | 33812 ft | 463 kts | 350° |
| 2026-05-01 11:59 | 67.78715 | 31.91242 | 33840 ft | 464 kts | 350° |
| 2026-05-01 12:00 | 67.88384 | 31.89748 | 33813 ft | 465 kts | 350° |
| 2026-05-01 12:01 | 67.98087 | 31.88236 | 33800 ft | 465 kts | 350° |
| 2026-05-01 12:01 | 68.04562 | 31.87219 | 33807 ft | 467 kts | 350° |
| 2026-05-01 12:02 | 68.11021 | 31.86201 | 33800 ft | 467 kts | 351° |